Time;durP1;ratioP1;P1;durP2;ratioP2;P2;SDS_P1;SDS_P2;PMS_P1;PMS_P2;Temp;Humidity;BMP_temperature;BMP_pressure;BME280_temperature;BME280_humidity;BME280_pressure;Samples;Min_cycle;Max_cycle;Signal;HPM_P1;HPM_P2
2022/04/06 13:27:24;;;;;;;6.30;2.65;;;;;;;18.37;32.69;101248.38;1958781;73;26351;-64
2022/04/06 13:29:53;;;;;;;3.42;2.50;;;;;;;18.17;32.95;101251.42;1918498;75;21506;-65
2022/04/06 13:32:22;;;;;;;6.42;2.75;;;;;;;18.17;33.25;101251.42;1918306;74;21047;-63
2022/04/06 13:34:50;;;;;;;6.25;2.95;;;;;;;18.22;33.52;101253.33;1902089;75;21032;-61
2022/04/06 13:37:19;;;;;;;7.37;2.98;;;;;;;18.30;33.54;101256.38;1885780;76;21047;-61
2022/04/06 13:39:48;;;;;;;4.50;2.42;;;;;;;18.29;33.53;101257.31;1885771;76;21035;-60
2022/04/06 13:42:17;;;;;;;6.03;3.00;;;;;;;18.19;33.63;101257.05;1885616;76;21497;-62
2022/04/06 13:44:46;;;;;;;6.58;3.12;;;;;;;18.12;33.61;101263.23;1887763;75;21446;-62
2022/04/06 13:47:15;;;;;;;4.78;2.50;;;;;;;18.02;33.74;101261.23;1885740;76;21514;-60
2022/04/06 13:49:44;;;;;;;7.22;3.92;;;;;;;17.97;33.96;101262.02;1885776;76;21474;-63
2022/04/06 13:52:13;;;;;;;4.42;2.42;;;;;;;17.84;34.03;101257.89;1887796;75;21108;-63
2022/04/06 13:54:42;;;;;;;6.47;3.10;;;;;;;17.74;34.16;101253.57;1885671;76;21434;-60
2022/04/06 13:57:10;;;;;;;8.45;3.02;;;;;;;17.66;34.39;101255.38;1885847;76;21051;-61
2022/04/06 13:59:39;;;;;;;4.95;2.72;;;;;;;17.61;34.39;101256.12;1885635;75;21118;-62
2022/04/06 14:02:08;;;;;;;5.65;2.77;;;;;;;17.53;34.56;101266.39;1891769;75;21060;-62
2022/04/06 14:04:36;;;;;;;4.75;2.62;;;;;;;17.36;34.78;101265.59;1918268;75;21117;-63
2022/04/06 14:07:06;;;;;;;3.95;2.72;;;;;;;17.30;34.78;101267.30;1918274;75;21040;-63
2022/04/06 14:09:34;;;;;;;7.25;2.40;;;;;;;17.22;34.86;101269.53;1918212;75;21541;-62
2022/04/06 14:12:03;;;;;;;8.40;3.47;;;;;;;17.17;34.95;101272.92;1918330;75;21043;-63
2022/04/06 14:14:32;;;;;;;4.33;2.30;;;;;;;17.13;34.96;101275.39;1917659;75;21110;-63
2022/04/06 14:17:01;;;;;;;4.03;2.20;;;;;;;17.08;35.12;101280.11;1918278;75;21117;-64
2022/04/06 14:19:29;;;;;;;3.45;2.05;;;;;;;17.02;35.11;101281.80;1913863;75;21161;-64
2022/04/06 14:21:58;;;;;;;3.67;2.08;;;;;;;16.97;35.12;101288.73;1885684;75;21136;-64
2022/04/06 14:24:27;;;;;;;9.95;3.47;;;;;;;16.87;35.26;101284.39;1885828;76;21011;-62
2022/04/06 14:26:56;;;;;;;7.60;3.83;;;;;;;16.76;35.35;101289.43;1889081;75;21079;-64
2022/04/06 14:29:24;;;;;;;8.75;3.58;;;;;;;16.68;35.45;101291.67;1894589;74;21035;-61
2022/04/06 14:31:53;;;;;;;11.43;4.97;;;;;;;16.60;35.68;101298.27;1892355;76;21040;-64
2022/04/06 14:34:22;;;;;;;4.60;2.45;;;;;;;16.54;35.66;101293.31;1892426;76;21525;-63
2022/04/06 14:36:51;;;;;;;7.12;4.00;;;;;;;16.50;35.65;101291.73;1892393;76;21472;-62
2022/04/06 14:39:20;;;;;;;3.45;2.17;;;;;;;16.43;35.75;101296.15;1894071;74;21062;-63
2022/04/06 14:41:49;;;;;;;5.92;2.40;;;;;;;16.29;35.98;101298.25;1891766;76;21039;-63
2022/04/06 14:44:18;;;;;;;4.50;2.33;;;;;;;16.19;36.12;101298.74;1891662;76;21477;-62
2022/04/06 14:46:46;;;;;;;5.25;2.60;;;;;;;16.11;36.15;101306.25;1891757;76;21129;-62
2022/04/06 14:49:15;;;;;;;13.95;3.37;;;;;;;16.06;36.19;101305.63;1894057;74;21149;-62
2022/04/06 14:51:44;;;;;;;6.40;2.35;;;;;;;16.02;36.22;101302.27;1891843;76;21547;-62
2022/04/06 14:54:13;;;;;;;5.90;2.42;;;;;;;15.98;36.24;101306.52;1891899;76;21145;-62
2022/04/06 14:56:42;;;;;;;5.28;2.50;;;;;;;15.87;36.36;101303.57;1891751;76;21035;-64
2022/04/06 14:59:10;;;;;;;7.37;2.35;;;;;;;15.79;36.52;101307.48;1891788;76;21114;-63
2022/04/06 15:01:39;;;;;;;12.80;2.60;;;;;;;15.69;36.55;101309.33;1894052;74;21035;-62
2022/04/06 15:04:08;;;;;;;7.97;2.62;;;;;;;15.62;36.61;101311.42;1891939;76;21050;-63
2022/04/06 15:06:37;;;;;;;4.12;2.10;;;;;;;15.49;36.75;101313.84;1891779;76;21521;-62
2022/04/06 15:09:09;;;;;;;4.62;2.20;;;;;;;15.39;36.87;101312.60;1891832;76;21059;-61
2022/04/06 15:11:36;;;;;;;5.37;2.90;;;;;;;15.26;37.00;101313.68;1893747;74;21074;-63
2022/04/06 15:14:05;;;;;;;4.53;2.50;;;;;;;15.08;37.20;101311.45;1891749;75;21462;-62
2022/04/06 15:16:33;;;;;;;3.55;1.90;;;;;;;15.01;37.35;101321.52;1891918;76;21113;-61
2022/04/06 15:19:02;;;;;;;4.22;2.30;;;;;;;14.90;37.39;101313.20;1891812;75;21035;-63
2022/04/06 15:21:31;;;;;;;5.78;2.10;;;;;;;14.86;37.46;101316.94;1893992;74;21023;-62
2022/04/06 15:24:00;;;;;;;5.08;2.08;;;;;;;14.79;37.49;101318.16;1891632;76;21055;-63
2022/04/06 15:26:29;;;;;;;3.45;2.35;;;;;;;14.73;37.55;101321.95;1891871;76;21129;-65
2022/04/06 15:28:57;;;;;;;6.40;3.65;;;;;;;14.66;37.67;101326.70;1889959;75;21117;-63
2022/04/06 15:31:26;;;;;;;6.60;3.30;;;;;;;14.62;37.67;101325.11;1905211;75;21134;-62
2022/04/06 15:33:55;;;;;;;10.55;3.33;;;;;;;14.51;37.85;101327.84;1905337;75;21450;-61
2022/04/06 15:39:10;;;;;;;6.15;2.27;;;;;;;14.20;38.32;101328.78;1903009;75;21106;-63
2022/04/06 15:41:38;;;;;;;3.62;2.42;;;;;;;14.14;38.33;101327.71;1905203;75;21044;-62
2022/04/06 15:44:07;;;;;;;3.15;2.10;;;;;;;14.09;38.42;101327.05;1905340;75;21009;-63
2022/04/06 15:46:36;;;;;;;3.50;2.02;;;;;;;14.03;38.41;101326.01;1905415;75;21161;-64
2022/04/06 15:49:04;;;;;;;6.97;2.60;;;;;;;13.95;38.50;101330.80;1902882;75;21031;-62
2022/04/06 15:51:33;;;;;;;5.65;3.00;;;;;;;13.84;38.64;101338.73;1905330;75;21001;-62
2022/04/06 15:54:02;;;;;;;4.78;2.55;;;;;;;13.80;38.67;101333.64;1905176;75;21118;-63
2022/04/06 15:56:31;;;;;;;4.53;2.55;;;;;;;13.74;38.77;101339.18;1905345;75;21040;-61
2022/04/06 15:59:00;;;;;;;6.25;3.08;;;;;;;13.70;38.78;101335.80;1905208;75;21478;-62
2022/04/06 16:01:28;;;;;;;5.35;2.95;;;;;;;13.62;38.89;101336.61;1902776;75;21016;-63
2022/04/06 16:03:57;;;;;;;4.17;2.80;;;;;;;13.50;39.15;101346.78;1905210;75;21096;-61
2022/04/06 16:06:27;;;;;;;6.75;2.95;;;;;;;13.44;39.23;101347.02;1902108;75;21092;-64
2022/04/06 16:08:55;;;;;;;5.83;2.77;;;;;;;13.39;39.30;101346.38;1903583;75;21075;-63
2022/04/06 16:11:25;;;;;;;11.28;4.12;;;;;;;13.31;39.34;101355.06;1905218;74;21068;-63
2022/04/06 16:13:54;;;;;;;12.93;4.80;;;;;;;13.24;39.41;101354.88;1905140;75;21537;-63
2022/04/06 16:16:23;;;;;;;15.65;5.70;;;;;;;13.16;39.61;101359.63;1889214;75;21028;-63
2022/04/06 16:18:51;;;;;;;12.28;5.10;;;;;;;13.10;39.71;101364.70;1872748;76;21118;-61
2022/04/06 16:21:20;;;;;;;8.28;4.12;;;;;;;13.00;39.81;101360.67;1872759;77;21016;-61
2022/04/06 16:23:48;;;;;;;10.78;4.70;;;;;;;12.92;39.90;101364.95;1872844;76;21039;-61
2022/04/06 16:26:17;;;;;;;13.00;4.60;;;;;;;12.88;39.95;101369.96;1881003;75;21105;-64
2022/04/06 16:28:46;;;;;;;11.65;4.25;;;;;;;12.78;40.10;101372.54;1917217;74;21087;-63
2022/04/06 16:31:14;;;;;;;17.77;4.12;;;;;;;12.69;40.28;101370.66;1924824;74;21047;-63
2022/04/06 16:33:43;;;;;;;11.78;4.33;;;;;;;12.62;40.39;101381.52;1924566;74;21551;-63
2022/04/06 16:36:12;;;;;;;19.82;5.47;;;;;;;12.57;40.52;101383.47;1924601;74;21538;-62
2022/04/06 16:38:42;;;;;;;19.37;6.87;;;;;;;12.51;40.56;101385.87;1924561;74;21043;-62
2022/04/06 16:41:10;;;;;;;22.17;6.97;;;;;;;12.44;40.74;101389.66;1922156;74;21459;-64
2022/04/06 16:43:39;;;;;;;17.45;6.47;;;;;;;12.36;40.93;101387.30;1924525;74;21590;-61
2022/04/06 16:46:08;;;;;;;21.27;7.58;;;;;;;12.31;41.07;101391.88;1924707;74;21101;-63
2022/04/06 16:48:37;;;;;;;16.07;6.30;;;;;;;12.25;41.18;101396.07;1924671;74;21481;-63
2022/04/06 16:53:52;;;;;;;16.35;6.87;;;;;;;12.09;41.50;101406.30;1891617;76;21505;-65
2022/04/06 16:56:20;;;;;;;13.70;6.53;;;;;;;12.02;41.60;101412.70;1891452;76;21011;-62
2022/04/06 16:58:49;;;;;;;19.10;7.25;;;;;;;11.96;41.73;101421.22;1891426;76;21051;-65
2022/04/06 17:01:18;;;;;;;18.00;7.72;;;;;;;11.93;41.84;101429.27;1891521;76;21124;-65
2022/04/06 17:03:46;;;;;;;13.38;6.87;;;;;;;11.88;41.93;101435.11;1919501;74;21079;-65
2022/04/06 17:06:15;;;;;;;18.48;8.75;;;;;;;11.82;42.05;101430.02;1924614;74;21047;-64
2022/04/06 17:08:44;;;;;;;23.35;11.15;;;;;;;11.78;42.24;101438.95;1924608;74;21113;-62
2022/04/06 17:11:12;;;;;;;31.30;11.57;;;;;;;11.73;42.38;101439.56;1924570;74;21008;-63
2022/04/06 17:13:41;;;;;;;22.37;9.25;;;;;;;11.69;42.50;101448.49;1921618;74;21031;-63
2022/04/06 17:16:10;;;;;;;14.78;6.75;;;;;;;11.62;42.54;101444.33;1924558;74;21071;-64
2022/04/06 17:18:39;;;;;;;11.05;5.42;;;;;;;11.54;42.72;101441.47;1924472;74;21047;-63
2022/04/06 17:21:08;;;;;;;13.20;6.50;;;;;;;11.51;42.82;101446.86;1924507;74;21137;-63
2022/04/06 17:23:36;;;;;;;16.93;8.05;;;;;;;11.46;42.86;101441.33;1913301;74;21505;-64
2022/04/06 17:26:07;;;;;;;14.13;7.37;;;;;;;11.38;42.91;101453.44;1891407;76;21015;-64
2022/04/06 17:28:35;;;;;;;10.35;5.72;;;;;;;11.32;42.94;101453.14;1886484;75;21060;-63
2022/04/06 17:31:04;;;;;;;15.35;6.62;;;;;;;11.26;42.96;101459.08;1872544;77;21032;-65
2022/04/06 17:33:33;;;;;;;14.50;6.37;;;;;;;11.19;43.07;101460.59;1874815;75;21024;-64
2022/04/06 17:36:02;;;;;;;19.67;5.87;;;;;;;11.15;43.15;101465.52;1872759;77;21114;-63
2022/04/06 17:38:31;;;;;;;12.78;5.97;;;;;;;11.12;43.20;101466.07;1872665;77;21020;-62
2022/04/06 17:40:59;;;;;;;13.70;6.05;;;;;;;11.08;43.31;101467.93;1872672;77;21036;-64
2022/04/06 17:43:28;;;;;;;15.10;6.95;;;;;;;11.06;43.21;101469.75;1872591;77;21034;-65
2022/04/06 17:45:57;;;;;;;14.45;6.58;;;;;;;11.00;43.25;101471.26;1874731;75;21083;-64
2022/04/06 17:48:26;;;;;;;19.27;9.70;;;;;;;10.96;43.33;101480.17;1872627;77;21087;-63
2022/04/06 17:50:55;;;;;;;20.37;9.00;;;;;;;10.92;43.37;101473.23;1872682;77;21060;-64
2022/04/06 17:53:24;;;;;;;18.27;10.63;;;;;;;10.91;43.40;101483.38;1872704;77;21068;-63
2022/04/06 17:55:52;;;;;;;17.37;8.68;;;;;;;10.88;43.32;101483.03;1895630;75;21024;-63
2022/04/06 17:58:21;;;;;;;18.25;8.83;;;;;;;10.82;43.32;101476.59;1905164;75;21119;-62
2022/04/06 18:00:49;;;;;;;13.70;8.13;;;;;;;10.77;43.35;101485.96;1905198;75;21052;-63
2022/04/06 18:03:18;;;;;;;17.90;8.00;;;;;;;10.71;43.36;101483.94;1905128;75;21131;-63
2022/04/06 18:05:47;;;;;;;15.75;7.15;;;;;;;10.65;43.46;101494.19;1902853;75;21076;-62
2022/04/06 18:08:16;;;;;;;14.30;7.30;;;;;;;10.57;43.57;101490.45;1905128;75;21526;-63
2022/04/06 18:13:40;;;;;;;18.50;5.55;;;;;;;10.43;43.92;101494.75;1905426;75;21021;-65
2022/04/06 18:16:21;;;;;;;12.60;6.00;;;;;;;10.32;44.06;101494.64;1905313;75;21525;-65
2022/04/06 18:18:47;;;;;;;15.28;5.35;;;;;;;10.23;44.34;101504.45;1903777;74;21012;-63
2022/04/06 18:21:18;;;;;;;11.68;4.78;;;;;;;10.12;45.01;101499.05;1878248;75;21127;-64
2022/04/06 18:23:48;;;;;;;9.10;4.92;;;;;;;10.02;44.78;101505.86;1872847;77;21012;-62
2022/04/06 18:26:17;;;;;;;8.48;5.35;;;;;;;9.91;45.06;101502.62;1872855;76;21466;-62
2022/04/06 18:28:47;;;;;;;12.50;6.00;;;;;;;9.72;45.98;101504.84;1873383;76;21047;-62
2022/04/06 18:31:17;;;;;;;10.00;4.97;;;;;;;9.56;46.88;101508.26;1893779;74;21007;-65
2022/04/06 18:33:46;;;;;;;14.70;6.12;;;;;;;9.48;46.66;101510.20;1891553;75;21515;-64
2022/04/06 18:36:15;;;;;;;16.85;5.90;;;;;;;9.47;46.30;101512.41;1891643;76;21039;-63
2022/04/06 18:38:44;;;;;;;19.02;7.35;;;;;;;9.42;47.03;101507.69;1891621;76;21105;-62
2022/04/06 18:41:13;;;;;;;16.48;5.72;;;;;;;9.37;46.78;101513.49;1893733;74;21060;-63
2022/04/06 18:43:43;;;;;;;12.37;5.47;;;;;;;9.25;46.89;101521.20;1891490;76;21031;-62
2022/04/06 18:46:12;;;;;;;11.25;4.78;;;;;;;9.14;47.31;101520.11;1891412;76;21003;-63
2022/04/06 18:48:41;;;;;;;15.32;6.42;;;;;;;9.02;47.34;101515.13;1891495;75;21090;-62
2022/04/06 18:51:10;;;;;;;8.73;4.53;;;;;;;8.95;47.73;101514.37;1893631;74;21564;-64
2022/04/06 18:53:38;;;;;;;8.10;4.33;;;;;;;8.86;47.75;101523.28;1891429;76;21564;-62
2022/04/06 18:56:07;;;;;;;18.90;6.55;;;;;;;8.77;47.97;101519.52;1891535;76;21490;-63
2022/04/06 18:58:36;;;;;;;14.40;6.75;;;;;;;8.76;47.72;101521.75;1891382;76;21489;-64
2022/04/06 19:01:05;;;;;;;17.27;7.33;;;;;;;8.73;48.20;101520.48;1891478;75;21553;-63
2022/04/06 19:03:35;;;;;;;12.25;6.50;;;;;;;8.67;48.25;101519.30;1893748;74;21039;-62
2022/04/06 19:06:03;;;;;;;10.68;5.70;;;;;;;8.60;48.32;101521.61;1891580;76;21007;-61
2022/04/06 19:08:32;;;;;;;13.35;5.08;;;;;;;8.50;48.86;101520.47;1894580;74;21176;-62
2022/04/06 19:11:00;;;;;;;11.45;5.25;;;;;;;8.44;48.74;101523.18;1924760;74;21121;-64
2022/04/06 19:13:29;;;;;;;17.35;5.72;;;;;;;8.43;48.64;101526.72;1924649;74;20995;-62
2022/04/06 19:15:58;;;;;;;12.90;6.25;;;;;;;8.42;48.99;101517.55;1924682;74;21082;-62
2022/04/06 19:18:26;;;;;;;18.45;6.50;;;;;;;8.37;49.24;101514.95;1906962;74;21169;-62
2022/04/06 19:20:55;;;;;;;12.28;5.95;;;;;;;8.30;49.81;101523.86;1891607;76;21015;-64
2022/04/06 19:23:24;;;;;;;8.38;4.37;;;;;;;8.27;49.84;101523.90;1891458;76;21483;-63
2022/04/06 19:25:53;;;;;;;14.20;5.05;;;;;;;8.19;50.13;101524.45;1891658;76;21039;-65
2022/04/06 19:28:21;;;;;;;12.90;5.72;;;;;;;8.14;50.23;101521.06;1901648;74;21028;-64
2022/04/06 19:30:52;;;;;;;10.25;5.00;;;;;;;8.07;50.29;101521.14;1913239;74;21076;-61
2022/04/06 19:33:20;;;;;;;15.53;6.60;;;;;;;8.00;51.25;101528.69;1905292;75;21013;-62
2022/04/06 19:35:49;;;;;;;10.85;5.62;;;;;;;7.91;51.02;101523.58;1905250;75;21029;-63
2022/04/06 19:38:18;;;;;;;18.62;6.03;;;;;;;7.83;51.81;101529.41;1905035;75;21605;-64
2022/04/06 19:40:47;;;;;;;17.48;5.58;;;;;;;7.72;52.26;101523.00;1904136;75;21021;-64
2022/04/06 19:43:15;;;;;;;13.45;6.20;;;;;;;7.63;52.42;101531.00;1905180;75;21102;-62
2022/04/06 19:45:44;;;;;;;11.15;5.17;;;;;;;7.48;52.97;101530.77;1905341;75;21004;-64
2022/04/06 19:48:12;;;;;;;16.00;5.28;;;;;;;7.47;52.63;101525.09;1905422;75;21114;-62
2022/04/06 19:50:42;;;;;;;9.35;4.58;;;;;;;7.44;52.85;101525.16;1905238;75;21114;-64
2022/04/06 19:53:11;;;;;;;15.05;6.30;;;;;;;7.39;53.64;101524.34;1903471;74;21028;-62
2022/04/06 19:55:42;;;;;;;19.40;7.17;;;;;;;7.28;54.37;101516.17;1872959;77;21076;-62
2022/04/06 19:58:10;;;;;;;9.23;4.92;;;;;;;7.26;54.34;101523.19;1872735;77;21616;-63
2022/04/06 20:00:39;;;;;;;8.90;4.42;;;;;;;7.19;55.70;101520.21;1872715;77;21477;-62
2022/04/06 20:03:09;;;;;;;9.83;4.90;;;;;;;7.18;55.50;101522.88;1872735;76;21209;-65
2022/04/06 20:05:39;;;;;;;10.20;3.72;;;;;;;7.14;55.20;101522.05;1879758;75;21055;-64
2022/04/06 20:08:08;;;;;;;11.60;4.62;;;;;;;7.09;55.14;101519.92;1872759;77;21502;-64
2022/04/06 20:10:36;;;;;;;12.10;4.67;;;;;;;7.00;55.14;101522.65;1872727;77;21044;-62
2022/04/06 20:13:05;;;;;;;5.17;3.10;;;;;;;6.95;55.06;101522.27;1872744;77;21044;-62
2022/04/06 20:15:34;;;;;;;11.50;3.98;;;;;;;6.93;55.35;101524.45;1874901;75;21102;-64
2022/04/06 20:18:04;;;;;;;11.00;4.37;;;;;;;6.88;56.28;101517.98;1872734;76;21102;-64
2022/04/06 20:20:35;;;;;;;10.55;5.42;;;;;;;6.88;55.76;101515.36;1872761;76;21032;-63
2022/04/06 20:23:06;;;;;;;14.47;6.45;;;;;;;6.88;56.00;101521.02;1900897;75;21118;-63
2022/04/06 20:25:35;;;;;;;6.50;3.37;;;;;;;6.86;55.70;101521.06;1902861;75;21028;-63
2022/04/06 20:28:04;;;;;;;10.23;3.65;;;;;;;6.87;55.60;101523.23;1905146;75;21048;-64
2022/04/06 20:30:32;;;;;;;13.25;4.67;;;;;;;6.86;55.08;101514.52;1905150;74;21546;-62
2022/04/06 20:33:01;;;;;;;13.45;6.40;;;;;;;6.81;55.30;101517.63;1905177;75;21004;-64
2022/04/06 20:35:30;;;;;;;14.87;6.17;;;;;;;6.71;55.77;101527.75;1905265;75;21065;-63
2022/04/06 20:37:58;;;;;;;13.98;5.65;;;;;;;6.66;55.89;101525.61;1904983;75;21081;-65
2022/04/06 20:40:27;;;;;;;7.22;3.70;;;;;;;6.60;55.93;101524.38;1905290;75;21460;-65
2022/04/06 20:42:56;;;;;;;9.18;4.47;;;;;;;6.55;55.94;101526.61;1905144;75;21541;-64
2022/04/06 20:45:24;;;;;;;11.73;4.67;;;;;;;6.48;56.87;101524.07;1905225;75;21020;-64
2022/04/06 20:47:53;;;;;;;9.60;4.70;;;;;;;6.41;57.58;101516.70;1902956;75;21028;-64
2022/04/06 20:50:22;;;;;;;9.73;5.17;;;;;;;6.33;57.50;101518.55;1905317;75;21478;-63
2022/04/06 20:52:51;;;;;;;13.18;3.98;;;;;;;6.31;57.08;101520.31;1905416;75;21029;-64
2022/04/06 20:55:20;;;;;;;8.30;4.22;;;;;;;6.27;56.89;101526.42;1905196;75;21024;-62
2022/04/06 20:57:49;;;;;;;6.12;3.55;;;;;;;6.24;56.54;101531.70;1902819;75;21572;-63
2022/04/06 21:00:18;;;;;;;8.05;3.98;;;;;;;6.14;57.19;101525.23;1905175;75;21036;-62
2022/04/06 21:02:46;;;;;;;11.90;4.30;;;;;;;6.06;57.25;101528.34;1905193;75;21122;-63
2022/04/06 21:05:15;;;;;;;9.05;4.67;;;;;;;6.04;56.95;101522.70;1905206;75;21044;-63
2022/04/06 21:07:44;;;;;;;7.40;3.83;;;;;;;5.97;57.60;101521.42;1905338;75;21411;-63
2022/04/06 21:10:13;;;;;;;8.63;3.85;;;;;;;5.92;57.67;101520.99;1905127;75;21114;-63
2022/04/06 21:12:42;;;;;;;13.48;5.85;;;;;;;5.90;57.59;101517.53;1887378;75;21498;-63
2022/04/06 21:15:17;;;;;;;9.70;2.50;;;;;;;5.83;58.30;101518.03;1901351;75;21102;-62
2022/04/06 21:17:45;;;;;;;9.13;3.37;;;;;;;5.77;58.21;101519.36;1905182;75;21001;-64
2022/04/06 21:20:14;;;;;;;8.60;4.58;;;;;;;5.75;58.30;101518.05;1905117;75;21540;-64
2022/04/06 21:22:43;;;;;;;6.97;3.67;;;;;;;5.72;58.89;101518.09;1902799;75;21451;-65
2022/04/06 21:25:12;;;;;;;5.05;2.65;;;;;;;5.68;58.65;101515.08;1905271;75;21110;-62
2022/04/06 21:27:41;;;;;;;6.65;3.55;;;;;;;5.68;58.57;101521.61;1905154;75;21051;-63
2022/04/06 21:30:11;;;;;;;10.48;4.35;;;;;;;5.67;57.98;101521.17;1905367;75;21521;-63
2022/04/06 21:32:40;;;;;;;11.45;5.97;;;;;;;5.64;58.30;101521.18;1908713;74;21106;-63
2022/04/06 21:35:11;;;;;;;7.65;4.53;;;;;;;5.61;58.57;101514.69;1891479;76;21094;-63
2022/04/06 21:37:39;;;;;;;6.37;2.62;;;;;;;5.55;58.57;101509.48;1890763;75;21098;-63
2022/04/06 21:40:09;;;;;;;8.38;3.85;;;;;;;5.53;58.62;101512.54;1891622;76;21019;-63
2022/04/06 21:42:37;;;;;;;8.35;4.10;;;;;;;5.52;58.29;101509.52;1893737;74;21130;-62
2022/04/06 21:45:07;;;;;;;5.28;4.15;;;;;;;5.50;57.95;101504.74;1891468;76;21012;-63
2022/04/06 21:47:35;;;;;;;6.20;4.15;;;;;;;5.49;57.88;101513.44;1891384;76;21031;-63
2022/04/06 21:50:05;;;;;;;7.83;3.52;;;;;;;5.45;57.95;101510.42;1891505;76;21000;-62
2022/04/06 21:52:33;;;;;;;7.65;4.35;;;;;;;5.40;57.72;101513.94;1891553;76;21028;-63
2022/04/06 21:55:02;;;;;;;11.15;3.98;;;;;;;5.37;57.67;101506.11;1891525;76;21035;-64
2022/04/06 21:57:31;;;;;;;5.67;3.45;;;;;;;5.32;57.84;101507.87;1903948;74;21555;-62
2022/04/06 21:59:59;;;;;;;8.80;4.60;;;;;;;5.30;57.67;101516.16;1924589;74;21082;-67
2022/04/06 22:02:28;;;;;;;5.37;3.02;;;;;;;5.25;58.00;101511.37;1924670;74;21031;-67
2022/04/06 22:04:56;;;;;;;6.47;3.40;;;;;;;5.22;58.17;101514.03;1906697;74;21051;-64
2022/04/06 22:07:25;;;;;;;11.38;3.80;;;;;;;5.16;58.83;101507.50;1891559;76;21529;-67
2022/04/06 22:09:54;;;;;;;7.85;3.42;;;;;;;5.12;58.82;101507.95;1891790;75;21113;-66
2022/04/06 22:12:22;;;;;;;8.45;4.90;;;;;;;5.06;58.87;101501.91;1891422;76;21035;-65
2022/04/06 22:14:51;;;;;;;12.82;4.45;;;;;;;5.02;59.04;101504.52;1906957;74;21634;-61
2022/04/06 22:17:20;;;;;;;7.50;3.90;;;;;;;5.00;59.21;101505.41;1899814;74;21172;-60
2022/04/06 22:19:48;;;;;;;14.75;3.22;;;;;;;4.98;59.04;101508.02;1905527;74;21051;-61
2022/04/06 22:22:17;;;;;;;11.43;4.17;;;;;;;4.97;58.78;101505.41;1914882;74;22088;-59
2022/04/06 22:24:45;;;;;;;9.15;3.50;;;;;;;4.93;58.67;101502.39;1898369;74;21047;-62
2022/04/06 22:27:14;;;;;;;10.68;4.20;;;;;;;4.90;58.58;101499.78;1891382;76;21094;-61
2022/04/06 22:29:43;;;;;;;6.90;3.62;;;;;;;4.85;59.16;101507.64;1891470;76;21067;-62
2022/04/06 22:32:11;;;;;;;12.37;3.45;;;;;;;4.77;59.82;101504.17;1908290;74;21072;-62
2022/04/06 22:34:40;;;;;;;10.00;4.05;;;;;;;4.70;59.56;101496.78;1905492;74;21086;-62
2022/04/06 22:37:09;;;;;;;8.10;3.92;;;;;;;4.69;59.23;101501.59;1891442;76;21121;-63
2022/04/06 22:39:37;;;;;;;6.25;4.35;;;;;;;4.69;59.25;101498.12;1891590;75;21602;-59
2022/04/06 22:42:06;;;;;;;13.90;3.42;;;;;;;4.68;59.29;101502.89;1904683;74;21110;-62
2022/04/06 22:44:35;;;;;;;5.28;2.50;;;;;;;4.66;59.64;101505.94;1920886;74;21466;-60
2022/04/06 22:47:05;;;;;;;7.97;4.12;;;;;;;4.61;59.70;101508.13;1914544;74;21031;-58
2022/04/06 22:49:33;;;;;;;6.60;3.75;;;;;;;4.58;59.86;101501.61;1922309;74;21108;-60
2022/04/06 22:52:02;;;;;;;7.85;4.03;;;;;;;4.57;59.61;101501.60;1892432;74;21031;-62
2022/04/06 22:54:32;;;;;;;10.98;4.62;;;;;;;4.56;59.58;101507.71;1891548;76;21036;-61
2022/04/06 22:57:01;;;;;;;7.92;4.40;;;;;;;4.51;59.41;101501.63;1891469;76;21474;-60
2022/04/06 22:59:30;;;;;;;10.82;4.15;;;;;;;4.46;59.39;101501.62;1891456;76;21070;-59
2022/04/06 23:01:58;;;;;;;9.50;4.45;;;;;;;4.40;59.52;101499.03;1893853;74;21023;-61
2022/04/06 23:04:27;;;;;;;8.98;4.65;;;;;;;4.30;59.94;101492.08;1891514;75;21051;-61
2022/04/06 23:06:55;;;;;;;9.23;4.22;;;;;;;4.27;60.39;101492.10;1898177;74;21169;-62
2022/04/06 23:09:24;;;;;;;13.08;3.50;;;;;;;4.23;60.28;101487.32;1899006;74;21114;-62
2022/04/06 23:11:53;;;;;;;10.95;3.37;;;;;;;4.21;60.53;101497.75;1896743;74;21632;-64
2022/04/06 23:14:22;;;;;;;9.13;4.20;;;;;;;4.18;60.96;101492.52;1904288;74;21528;-62
2022/04/06 23:16:50;;;;;;;8.60;3.92;;;;;;;4.15;60.81;101489.94;1910281;74;21047;-63
2022/04/06 23:19:19;;;;;;;9.85;4.08;;;;;;;4.15;60.51;101484.73;1902109;74;21275;-65
2022/04/06 23:21:48;;;;;;;6.50;3.35;;;;;;;4.14;60.30;101484.28;1901771;74;21123;-62
2022/04/06 23:24:16;;;;;;;6.90;2.70;;;;;;;4.14;60.05;101476.45;1910712;74;21141;-63
2022/04/06 23:26:45;;;;;;;8.10;3.37;;;;;;;4.12;59.94;101483.41;1913384;74;21082;-64
2022/04/06 23:29:15;;;;;;;9.55;3.98;;;;;;;4.09;60.09;101476.89;1906140;74;21466;-67
2022/04/06 23:31:43;;;;;;;5.45;3.83;;;;;;;4.07;59.91;101478.63;1906051;74;21113;-64
2022/04/06 23:34:12;;;;;;;13.50;3.80;;;;;;;4.03;60.47;101479.06;1916614;74;21032;-62
2022/04/06 23:36:41;;;;;;;10.30;4.70;;;;;;;3.96;60.38;101476.46;1924565;74;21113;-61
2022/04/06 23:39:09;;;;;;;8.60;4.28;;;;;;;3.91;60.60;101478.19;1924252;74;21471;-68
2022/04/06 23:41:38;;;;;;;6.37;3.12;;;;;;;3.85;60.66;101480.36;1924310;74;21036;-64
2022/04/06 23:44:08;;;;;;;8.58;2.75;;;;;;;3.82;60.54;101479.94;1924478;74;21501;-64
2022/04/06 23:46:37;;;;;;;10.85;3.37;;;;;;;3.80;60.43;101480.38;1920668;74;21109;-62
2022/04/06 23:49:06;;;;;;;9.68;4.20;;;;;;;3.78;60.89;101473.41;1891424;76;21104;-60
2022/04/06 23:51:34;;;;;;;12.93;4.62;;;;;;;3.76;60.69;101474.73;1903369;74;21039;-65
2022/04/06 23:54:04;;;;;;;3.47;2.27;;;;;;;3.73;60.98;101470.81;1924631;74;21121;-62
2022/04/06 23:56:32;;;;;;;8.00;3.95;;;;;;;3.70;61.27;101465.59;1924506;74;21474;-61
2022/04/06 23:59:04;;;;;;;14.03;5.78;;;;;;;3.66;61.32;101469.06;1924520;74;21545;-62
